Time;durP1;ratioP1;P1;durP2;ratioP2;P2;SDS_P1;SDS_P2;PMS_P1;PMS_P2;Temp;Humidity;BMP_temperature;BMP_pressure;BME280_temperature;BME280_humidity;BME280_pressure;Samples;Min_cycle;Max_cycle;Signal;HPM_P1;HPM_P2
2023/11/18 00:02:16;;;;;;;5.80;2.50;;;;;;;;;;103655;1292;544760;-72
2023/11/18 00:05:56;;;;;;;5.20;2.20;;;;;;;;;;103825;1288;545088;-72
2023/11/18 00:09:32;;;;;;;4.90;2.30;;;;;;;;;;104185;1288;546132;-73
2023/11/18 00:13:09;;;;;;;5.70;2.00;;;;;;;;;;104212;1289;544962;-72
2023/11/18 00:16:46;;;;;;;7.00;2.70;;;;;;;;;;103807;1289;545001;-71
2023/11/18 00:20:24;;;;;;;5.90;2.40;;;;;;;;;;103475;1293;544809;-72
2023/11/18 00:24:01;;;;;;;4.70;2.20;;;;;;;;;;103698;1292;544745;-70
2023/11/18 00:27:39;;;;;;;5.90;2.60;;;;;;;;;;103783;1291;544953;-72
2023/11/18 00:31:16;;;;;;;4.50;2.10;;;;;;;;;;103704;1291;545112;-70
2023/11/18 00:34:53;;;;;;;6.30;2.30;;;;;;;;;;103753;1289;545163;-72
2023/11/18 00:38:32;;;;;;;4.80;2.10;;;;;;;;;;103718;1292;544938;-71
2023/11/18 00:42:08;;;;;;;5.10;2.40;;;;;;;;;;104319;1288;545158;-72
2023/11/18 00:45:49;;;;;;;5.40;2.40;;;;;;;;;;103570;1294;544807;-71
2023/11/18 00:49:25;;;;;;;6.40;2.50;;;;;;;;;;103504;1298;544995;-70
2023/11/18 00:53:01;;;;;;;5.10;2.30;;;;;;;;;;103695;1291;545074;-71
2023/11/18 00:56:38;;;;;;;7.30;2.90;;;;;;;;;;103978;1288;545643;-72
2023/11/18 01:00:21;;;;;;;8.10;2.70;;;;;;;;;;104144;1289;544773;-70
2023/11/18 01:03:53;;;;;;;5.50;2.10;;;;;;;;;;103797;1289;544773;-71
2023/11/18 01:07:35;;;;;;;4.80;2.10;;;;;;;;;;103954;1289;545144;-72
2023/11/18 01:11:08;;;;;;;5.30;2.00;;;;;;;;;;103711;1292;544787;-72
2023/11/18 01:14:42;;;;;;;5.30;2.00;;;;;;;;;;103819;1288;544992;-71
2023/11/18 01:18:23;;;;;;;3.70;1.80;;;;;;;;;;103832;1289;545629;-73
2023/11/18 01:21:57;;;;;;;5.10;2.00;;;;;;;;;;103749;1292;545840;-72
2023/11/18 01:25:39;;;;;;;4.00;1.90;;;;;;;;;;104001;1288;544791;-73
2023/11/18 01:29:13;;;;;;;4.60;1.80;;;;;;;;;;103838;1291;544916;-70
2023/11/18 01:32:54;;;;;;;3.70;1.60;;;;;;;;;;103822;1293;546219;-71
2023/11/18 01:36:31;;;;;;;4.40;1.90;;;;;;;;;;103639;1291;545389;-72
2023/11/18 01:40:08;;;;;;;5.10;2.20;;;;;;;;;;103802;1289;546048;-72
2023/11/18 01:43:55;;;;;;;4.80;2.40;;;;;;;;;;103752;1293;544881;-72
2023/11/18 01:47:25;;;;;;;4.30;2.20;;;;;;;;;;103772;1290;545143;-71
2023/11/18 01:51:01;;;;;;;4.50;2.10;;;;;;;;;;103734;1289;544923;-72
2023/11/18 01:54:39;;;;;;;4.50;2.00;;;;;;;;;;103851;1289;544974;-72
2023/11/18 01:58:19;;;;;;;5.00;2.20;;;;;;;;;;103755;1290;544842;-71
2023/11/18 02:01:53;;;;;;;6.10;2.30;;;;;;;;;;104000;1289;544935;-70
2023/11/18 02:05:32;;;;;;;5.70;2.70;;;;;;;;;;103442;1300;545013;-71
2023/11/18 02:09:07;;;;;;;4.70;2.50;;;;;;;;;;103826;1290;545377;-71
2023/11/18 02:13:06;;;;;;;5.30;2.50;;;;;;;;;;103616;1292;545783;-73
2023/11/18 02:16:23;;;;;;;4.90;2.60;;;;;;;;;;103765;1291;544953;-71
2023/11/18 02:20:00;;;;;;;5.40;2.70;;;;;;;;;;104050;1288;544736;-73
2023/11/18 02:23:38;;;;;;;5.70;2.70;;;;;;;;;;103833;1288;544854;-72
2023/11/18 02:27:18;;;;;;;6.40;2.50;;;;;;;;;;103830;1291;544982;-70
2023/11/18 02:30:56;;;;;;;5.80;2.60;;;;;;;;;;103737;1292;545052;-72
2023/11/18 02:34:32;;;;;;;5.60;2.70;;;;;;;;;;103760;1289;544839;-71
2023/11/18 02:38:10;;;;;;;6.40;3.10;;;;;;;;;;103894;1288;544619;-72
2023/11/18 02:41:47;;;;;;;6.50;2.90;;;;;;;;;;103813;1289;544905;-73
2023/11/18 02:45:23;;;;;;;5.70;2.60;;;;;;;;;;103702;1291;545216;-72
2023/11/18 02:49:00;;;;;;;5.90;2.80;;;;;;;;;;103820;1289;545412;-72
2023/11/18 02:52:37;;;;;;;8.30;3.30;;;;;;;;;;103761;1289;544971;-72
2023/11/18 02:56:14;;;;;;;4.90;2.70;;;;;;;;;;103458;1294;546184;-73
2023/11/18 02:59:53;;;;;;;6.60;3.00;;;;;;;;;;103481;1293;544863;-74
2023/11/18 03:03:30;;;;;;;4.90;2.70;;;;;;;;;;103775;1290;544974;-73
2023/11/18 03:07:08;;;;;;;6.10;3.00;;;;;;;;;;104083;1288;544681;-72
2023/11/18 03:10:45;;;;;;;5.30;2.90;;;;;;;;;;103754;1292;545121;-73
2023/11/18 03:14:23;;;;;;;5.20;2.40;;;;;;;;;;103863;1289;545407;-73
2023/11/18 03:18:00;;;;;;;6.20;2.70;;;;;;;;;;103731;1291;545785;-72
2023/11/18 03:21:38;;;;;;;5.80;2.30;;;;;;;;;;103993;1302;544932;-73
2023/11/18 03:25:15;;;;;;;4.10;1.80;;;;;;;;;;103824;1289;544835;-74
2023/11/18 03:28:52;;;;;;;3.90;1.40;;;;;;;;;;103865;1288;545035;-72
2023/11/18 03:32:31;;;;;;;4.90;1.70;;;;;;;;;;103862;1291;545656;-71
2023/11/18 03:36:08;;;;;;;6.10;1.80;;;;;;;;;;103819;1291;545100;-72
2023/11/18 03:39:45;;;;;;;4.70;1.70;;;;;;;;;;103878;1288;545770;-72
2023/11/18 03:43:22;;;;;;;4.10;1.40;;;;;;;;;;103757;1290;545866;-70
2023/11/18 03:47:02;;;;;;;3.90;1.60;;;;;;;;;;103822;1291;544836;-70
2023/11/18 03:50:37;;;;;;;4.70;1.90;;;;;;;;;;103819;1294;544911;-73
2023/11/18 03:54:14;;;;;;;3.80;1.80;;;;;;;;;;103810;1291;544923;-72
2023/11/18 03:57:52;;;;;;;4.70;1.90;;;;;;;;;;103827;1290;545929;-71
2023/11/18 04:01:34;;;;;;;4.70;2.00;;;;;;;;;;103786;1301;545070;-72
2023/11/18 04:05:08;;;;;;;5.50;2.10;;;;;;;;;;103794;1292;544722;-72
2023/11/18 04:08:45;;;;;;;5.10;2.40;;;;;;;;;;103807;1289;545130;-73
2023/11/18 04:12:23;;;;;;;5.10;2.30;;;;;;;;;;103832;1289;544822;-71
2023/11/18 04:15:55;;;;;;;5.00;2.50;;;;;;;;;;103860;1290;545016;-72
2023/11/18 04:19:37;;;;;;;6.00;3.00;;;;;;;;;;103927;1288;544958;-72
2023/11/18 04:23:14;;;;;;;6.30;3.00;;;;;;;;;;103475;1295;545126;-71
2023/11/18 04:26:49;;;;;;;7.20;3.30;;;;;;;;;;103937;1292;545951;-70
2023/11/18 04:30:29;;;;;;;5.10;2.60;;;;;;;;;;103860;1289;544921;-72
2023/11/18 04:34:06;;;;;;;5.30;2.70;;;;;;;;;;103788;1292;545413;-71
2023/11/18 04:37:45;;;;;;;5.40;2.60;;;;;;;;;;103772;1290;544975;-72
2023/11/18 04:41:22;;;;;;;5.70;2.60;;;;;;;;;;103544;1297;545332;-70
2023/11/18 04:44:59;;;;;;;6.80;3.10;;;;;;;;;;103798;1291;545592;-72
2023/11/18 04:48:36;;;;;;;5.60;2.60;;;;;;;;;;103899;1288;544843;-72
2023/11/18 04:52:17;;;;;;;5.30;2.60;;;;;;;;;;103818;1289;544857;-70
2023/11/18 04:55:52;;;;;;;5.80;2.50;;;;;;;;;;103804;1289;545918;-71
2023/11/18 04:59:30;;;;;;;5.20;2.30;;;;;;;;;;103825;1289;546285;-71
2023/11/18 05:03:03;;;;;;;5.10;2.40;;;;;;;;;;103892;1292;544945;-72
2023/11/18 05:06:44;;;;;;;5.40;2.50;;;;;;;;;;103757;1292;544852;-73
2023/11/18 05:10:21;;;;;;;5.60;2.50;;;;;;;;;;103731;1291;544959;-72
2023/11/18 05:13:56;;;;;;;4.70;2.00;;;;;;;;;;103855;1289;544779;-73
2023/11/18 05:17:36;;;;;;;5.20;2.40;;;;;;;;;;103780;1291;545338;-71
2023/11/18 05:21:14;;;;;;;5.40;2.40;;;;;;;;;;103894;1289;545656;-73
2023/11/18 05:24:51;;;;;;;5.10;2.30;;;;;;;;;;103697;1292;544916;-71
2023/11/18 05:28:30;;;;;;;6.50;2.30;;;;;;;;;;103501;1292;545123;-72
2023/11/18 05:32:06;;;;;;;4.90;2.20;;;;;;;;;;103955;1292;545446;-71
2023/11/18 05:35:53;;;;;;;6.90;3.10;;;;;;;;;;103461;1294;545035;-73
2023/11/18 05:39:23;;;;;;;6.10;2.90;;;;;;;;;;104077;1289;544972;-73
2023/11/18 05:42:58;;;;;;;6.60;2.90;;;;;;;;;;103801;1292;544701;-71
2023/11/18 05:46:36;;;;;;;7.40;3.50;;;;;;;;;;103810;1289;544710;-71
2023/11/18 05:50:14;;;;;;;7.50;3.40;;;;;;;;;;103491;1296;545988;-72
2023/11/18 05:53:51;;;;;;;7.30;3.80;;;;;;;;;;103871;1292;545607;-72
2023/11/18 05:57:31;;;;;;;7.60;3.70;;;;;;;;;;103695;1290;546818;-72
2023/11/18 06:01:10;;;;;;;6.60;3.60;;;;;;;;;;103945;1288;544910;-71
2023/11/18 06:04:47;;;;;;;7.10;4.40;;;;;;;;;;103781;1292;544786;-71
2023/11/18 06:08:22;;;;;;;7.40;3.80;;;;;;;;;;103786;1289;545111;-72
2023/11/18 06:11:54;;;;;;;6.30;3.20;;;;;;;;;;103811;1301;545288;-74
2023/11/18 06:15:38;;;;;;;7.40;3.80;;;;;;;;;;103828;1289;545621;-74
2023/11/18 06:19:14;;;;;;;7.30;3.60;;;;;;;;;;103813;1289;546065;-73
2023/11/18 06:22:46;;;;;;;8.00;4.30;;;;;;;;;;103726;1295;544820;-71
2023/11/18 06:26:28;;;;;;;7.00;3.30;;;;;;;;;;103480;1294;545134;-71
2023/11/18 06:30:06;;;;;;;6.30;3.20;;;;;;;;;;103580;1294;544877;-72
2023/11/18 06:33:43;;;;;;;6.60;3.50;;;;;;;;;;103863;1292;545827;-71
2023/11/18 06:37:20;;;;;;;7.40;4.40;;;;;;;;;;103796;1290;545646;-73
2023/11/18 06:40:58;;;;;;;7.80;4.30;;;;;;;;;;103887;1290;545420;-72
2023/11/18 06:44:35;;;;;;;7.20;4.30;;;;;;;;;;103751;1289;544768;-73
2023/11/18 06:48:14;;;;;;;8.10;4.40;;;;;;;;;;103815;1290;544779;-72
2023/11/18 06:51:50;;;;;;;7.60;4.50;;;;;;;;;;103603;1305;545344;-71
2023/11/18 06:55:27;;;;;;;7.90;4.60;;;;;;;;;;103814;1289;545872;-73
2023/11/18 06:59:14;;;;;;;8.20;4.80;;;;;;;;;;103710;1295;548031;-73
2023/11/18 07:02:42;;;;;;;9.10;5.30;;;;;;;;;;103626;1292;545073;-72
2023/11/18 07:06:21;;;;;;;9.90;6.10;;;;;;;;;;103861;1289;545554;-72
2023/11/18 07:09:53;;;;;;;10.50;7.20;;;;;;;;;;103792;1295;545384;-75
2023/11/18 07:13:35;;;;;;;10.10;6.90;;;;;;;;;;104065;1286;544975;-72
2023/11/18 07:17:12;;;;;;;10.70;6.10;;;;;;;;;;103847;1288;545553;-72
2023/11/18 07:20:52;;;;;;;8.40;5.30;;;;;;;;;;103793;1289;545365;-72
2023/11/18 07:24:29;;;;;;;8.60;5.20;;;;;;;;;;103795;1289;544895;-71
2023/11/18 07:28:05;;;;;;;10.10;6.70;;;;;;;;;;103543;1291;544931;-72
2023/11/18 07:31:43;;;;;;;10.60;5.70;;;;;;;;;;103845;1289;544993;-72
2023/11/18 07:35:20;;;;;;;8.60;5.20;;;;;;;;;;103769;1289;545621;-71
2023/11/18 07:38:58;;;;;;;9.60;5.80;;;;;;;;;;103750;1290;544985;-72
2023/11/18 07:42:34;;;;;;;10.50;7.10;;;;;;;;;;103757;1292;545785;-71
2023/11/18 07:46:13;;;;;;;8.80;5.50;;;;;;;;;;103703;1289;544943;-72
2023/11/18 07:49:49;;;;;;;10.20;6.30;;;;;;;;;;103688;1291;545166;-70
2023/11/18 07:53:29;;;;;;;10.30;7.10;;;;;;;;;;103854;1292;545034;-71
2023/11/18 07:57:10;;;;;;;10.10;6.50;;;;;;;;;;103858;1289;545056;-71
2023/11/18 08:00:42;;;;;;;9.50;5.60;;;;;;;;;;103563;1295;545383;-73
2023/11/18 08:04:17;;;;;;;10.40;6.50;;;;;;;;;;103811;1291;544785;-72
2023/11/18 08:07:53;;;;;;;8.80;5.60;;;;;;;;;;103728;1289;545624;-72
2023/11/18 08:11:30;;;;;;;8.60;5.30;;;;;;;;;;103790;1292;544776;-71
2023/11/18 08:15:11;;;;;;;13.20;9.80;;;;;;;;;;104398;1282;545226;-72
2023/11/18 08:18:50;;;;;;;10.90;5.90;;;;;;;;;;103816;1289;545408;-70
2023/11/18 08:22:46;;;;;;;12.60;7.40;;;;;;;;;;103835;1302;544874;-69
2023/11/18 08:26:07;;;;;;;11.80;7.60;;;;;;;;;;103682;1289;544950;-69
2023/11/18 08:29:42;;;;;;;9.80;5.90;;;;;;;;;;103952;1288;544902;-71
2023/11/18 08:33:28;;;;;;;7.60;4.50;;;;;;;;;;104724;1281;544981;-71
2023/11/18 08:36:57;;;;;;;8.80;5.30;;;;;;;;;;103889;1292;546474;-71
2023/11/18 08:40:34;;;;;;;9.80;5.30;;;;;;;;;;103711;1290;545423;-71
2023/11/18 08:44:12;;;;;;;8.70;5.10;;;;;;;;;;103693;1291;545927;-71
2023/11/18 08:47:49;;;;;;;10.00;6.00;;;;;;;;;;103797;1292;545520;-72
2023/11/18 08:51:26;;;;;;;10.10;6.10;;;;;;;;;;103611;1293;545177;-72
2023/11/18 08:55:17;;;;;;;10.10;5.80;;;;;;;;;;103781;1292;545147;-71
2023/11/18 08:58:49;;;;;;;8.70;5.60;;;;;;;;;;104113;1288;544950;-71
2023/11/18 09:02:23;;;;;;;10.10;6.20;;;;;;;;;;104028;1289;544969;-72
2023/11/18 09:05:57;;;;;;;10.50;6.80;;;;;;;;;;103778;1289;544977;-72
2023/11/18 09:09:32;;;;;;;8.30;5.20;;;;;;;;;;103904;1293;545653;-72
2023/11/18 09:13:07;;;;;;;8.70;5.00;;;;;;;;;;103978;1292;544975;-72
2023/11/18 09:16:48;;;;;;;10.20;6.10;;;;;;;;;;103873;1291;544754;-72
2023/11/18 09:20:26;;;;;;;9.40;6.10;;;;;;;;;;103743;1292;545072;-71
2023/11/18 09:24:05;;;;;;;9.50;5.60;;;;;;;;;;103781;1290;545341;-71
2023/11/18 09:27:42;;;;;;;9.50;4.70;;;;;;;;;;103705;1294;545065;-71
2023/11/18 09:31:18;;;;;;;8.50;5.30;;;;;;;;;;104278;1288;545014;-70
2023/11/18 09:34:53;;;;;;;8.10;4.60;;;;;;;;;;104033;1288;545598;-72
2023/11/18 09:38:40;;;;;;;7.10;4.20;;;;;;;;;;103688;1291;547967;-71
2023/11/18 09:42:14;;;;;;;8.20;4.60;;;;;;;;;;103958;1292;544701;-70
2023/11/18 09:45:52;;;;;;;8.90;5.30;;;;;;;;;;103624;1291;544964;-71
2023/11/18 09:49:33;;;;;;;10.80;6.00;;;;;;;;;;104155;1291;545659;-71
2023/11/18 09:53:05;;;;;;;10.30;5.70;;;;;;;;;;104546;1292;544779;-71
2023/11/18 09:56:56;;;;;;;10.90;6.30;;;;;;;;;;104201;1288;545147;-71
2023/11/18 10:00:26;;;;;;;10.70;7.30;;;;;;;;;;104230;1291;544761;-71
2023/11/18 10:03:58;;;;;;;11.30;6.80;;;;;;;;;;103934;1295;545092;-71
2023/11/18 10:07:36;;;;;;;10.70;7.20;;;;;;;;;;104004;1292;545178;-72
2023/11/18 10:11:13;;;;;;;10.00;6.00;;;;;;;;;;104011;1289;545201;-72
2023/11/18 10:14:50;;;;;;;12.00;6.90;;;;;;;;;;103993;1291;545478;-71
2023/11/18 10:18:28;;;;;;;9.40;5.60;;;;;;;;;;103849;1290;545281;-71
2023/11/18 10:22:04;;;;;;;10.30;6.00;;;;;;;;;;104099;1288;545140;-72
2023/11/18 10:25:45;;;;;;;10.00;6.10;;;;;;;;;;103975;1294;544778;-72
2023/11/18 10:29:14;;;;;;;10.80;6.90;;;;;;;;;;104050;1294;544966;-70
2023/11/18 10:33:05;;;;;;;11.30;6.60;;;;;;;;;;104138;1292;544878;-71
2023/11/18 10:36:33;;;;;;;9.80;5.80;;;;;;;;;;104012;1293;545037;-72
2023/11/18 10:40:13;;;;;;;10.70;6.70;;;;;;;;;;103834;1288;545805;-71
2023/11/18 10:43:44;;;;;;;9.90;6.30;;;;;;;;;;104344;1288;545436;-70
2023/11/18 10:47:28;;;;;;;9.40;6.40;;;;;;;;;;104064;1289;545141;-72
2023/11/18 10:51:03;;;;;;;10.10;6.70;;;;;;;;;;104140;1289;544837;-71
2023/11/18 10:54:50;;;;;;;11.40;8.00;;;;;;;;;;103901;1288;545972;-71
2023/11/18 10:58:18;;;;;;;9.90;6.80;;;;;;;;;;103854;1289;545945;-72
2023/11/18 11:01:57;;;;;;;11.70;7.70;;;;;;;;;;103943;1290;545595;-71
2023/11/18 11:05:32;;;;;;;9.60;6.60;;;;;;;;;;103885;1295;545036;-72
2023/11/18 11:09:14;;;;;;;11.10;6.20;;;;;;;;;;104069;1292;545420;-72
2023/11/18 11:12:52;;;;;;;10.60;6.50;;;;;;;;;;103649;1302;544910;-73
2023/11/18 11:16:31;;;;;;;12.50;7.90;;;;;;;;;;103854;1291;545335;-72
2023/11/18 11:20:17;;;;;;;16.90;10.00;;;;;;;;;;103793;1291;545658;-72
2023/11/18 11:23:49;;;;;;;14.80;8.70;;;;;;;;;;104067;1299;545013;-72
2023/11/18 11:27:18;;;;;;;21.80;13.10;;;;;;;;;;104005;1292;545481;-72
2023/11/18 11:31:15;;;;;;;22.40;15.10;;;;;;;;;;103809;1291;545553;-71
2023/11/18 11:34:32;;;;;;;17.90;11.40;;;;;;;;;;103846;1292;545011;-70
2023/11/18 11:38:16;;;;;;;16.50;11.40;;;;;;;;;;103667;1293;548203;-71
2023/11/18 11:41:59;;;;;;;13.90;8.90;;;;;;;;;;104692;1282;545015;-72
2023/11/18 11:45:28;;;;;;;22.10;16.30;;;;;;;;;;103853;1289;544926;-71
2023/11/18 11:49:08;;;;;;;14.50;9.90;;;;;;;;;;103809;1294;544883;-72
2023/11/18 11:52:44;;;;;;;14.90;11.40;;;;;;;;;;103809;1291;545141;-70
2023/11/18 11:56:21;;;;;;;11.00;7.80;;;;;;;;;;103835;1291;544781;-73
2023/11/18 11:59:56;;;;;;;11.80;7.10;;;;;;;;;;103628;1291;545253;-72
2023/11/18 12:03:36;;;;;;;11.70;7.50;;;;;;;;;;103940;1302;544790;-71
2023/11/18 12:07:09;;;;;;;10.80;6.30;;;;;;;;;;103671;1293;544773;-72
2023/11/18 12:10:56;;;;;;;10.20;5.40;;;;;;;;;;103894;1289;546182;-71
2023/11/18 12:18:03;;;;;;;13.90;6.90;;;;;;;;;;104043;1293;544930;-71
2023/11/18 12:22:00;;;;;;;12.70;6.80;;;;;;;;;;103811;1292;545030;-72
2023/11/18 12:25:16;;;;;;;10.00;4.70;;;;;;;;;;103915;1289;545021;-72
2023/11/18 12:28:55;;;;;;;20.60;9.30;;;;;;;;;;103809;1292;544749;-70
2023/11/18 12:32:50;;;;;;;15.10;7.60;;;;;;;;;;103731;1289;545237;-72
2023/11/18 12:36:27;;;;;;;15.40;9.10;;;;;;;;;;103723;1290;544935;-71
2023/11/18 12:39:50;;;;;;;16.60;9.20;;;;;;;;;;103773;1289;544948;-71
2023/11/18 12:43:47;;;;;;;21.20;12.00;;;;;;;;;;103800;1292;545375;-71
2023/11/18 12:47:14;;;;;;;20.00;11.40;;;;;;;;;;103828;1289;546195;-73
2023/11/18 12:50:45;;;;;;;18.20;11.10;;;;;;;;;;103925;1290;544847;-70
2023/11/18 12:54:18;;;;;;;18.30;10.70;;;;;;;;;;103833;1289;545518;-73
2023/11/18 12:57:54;;;;;;;25.20;15.40;;;;;;;;;;103789;1290;545429;-73
2023/11/18 13:01:36;;;;;;;32.00;18.90;;;;;;;;;;103968;1289;544990;-74
2023/11/18 13:05:09;;;;;;;41.00;24.90;;;;;;;;;;103764;1293;544982;-73
2023/11/18 13:08:46;;;;;;;43.00;24.60;;;;;;;;;;103773;1289;545030;-70
2023/11/18 13:12:24;;;;;;;62.50;30.90;;;;;;;;;;103722;1294;545672;-73
2023/11/18 13:16:01;;;;;;;48.40;23.40;;;;;;;;;;103799;1291;545770;-74
2023/11/18 13:19:42;;;;;;;30.90;16.00;;;;;;;;;;103843;1290;545721;-72
2023/11/18 13:23:18;;;;;;;21.40;12.00;;;;;;;;;;104591;1286;544966;-71
2023/11/18 13:26:55;;;;;;;26.10;15.80;;;;;;;;;;103804;1291;544803;-73
2023/11/18 13:30:32;;;;;;;27.90;19.30;;;;;;;;;;103774;1289;544740;-72
2023/11/18 13:34:10;;;;;;;22.10;14.50;;;;;;;;;;103916;1292;545650;-72
2023/11/18 13:37:50;;;;;;;16.00;11.00;;;;;;;;;;103795;1293;544892;-73
2023/11/18 13:41:33;;;;;;;16.20;10.60;;;;;;;;;;104593;1282;544704;-73
2023/11/18 13:45:12;;;;;;;17.40;11.90;;;;;;;;;;104086;1288;545184;-72
2023/11/18 13:48:40;;;;;;;14.50;9.40;;;;;;;;;;104260;1288;545059;-73
2023/11/18 13:52:18;;;;;;;14.70;10.80;;;;;;;;;;103776;1294;545333;-72
2023/11/18 13:55:49;;;;;;;13.20;8.00;;;;;;;;;;104031;1289;545983;-72
2023/11/18 13:59:27;;;;;;;12.60;7.30;;;;;;;;;;103865;1292;545795;-71
2023/11/18 14:03:11;;;;;;;16.00;7.90;;;;;;;;;;103547;1298;544980;-73
2023/11/18 14:06:52;;;;;;;15.60;8.40;;;;;;;;;;103758;1294;545028;-72
2023/11/18 14:10:25;;;;;;;17.80;10.60;;;;;;;;;;103700;1291;545779;-74
2023/11/18 14:14:00;;;;;;;19.20;11.60;;;;;;;;;;103816;1300;544974;-72
2023/11/18 14:17:39;;;;;;;24.00;13.10;;;;;;;;;;103740;1290;544888;-74
2023/11/18 14:21:15;;;;;;;9.80;5.00;;;;;;;;;;103948;1290;545505;-74
2023/11/18 14:24:53;;;;;;;8.90;4.30;;;;;;;;;;103686;1293;545399;-72
2023/11/18 14:28:31;;;;;;;9.10;4.30;;;;;;;;;;104089;1292;545348;-72
2023/11/18 14:32:08;;;;;;;12.80;5.90;;;;;;;;;;103801;1289;544975;-72
2023/11/18 14:35:46;;;;;;;12.00;5.30;;;;;;;;;;103628;1294;544746;-73
2023/11/18 14:39:23;;;;;;;10.70;5.10;;;;;;;;;;103936;1288;545082;-74
2023/11/18 14:43:00;;;;;;;14.60;5.70;;;;;;;;;;103700;1291;545417;-74
2023/11/18 14:46:45;;;;;;;10.40;4.70;;;;;;;;;;103854;1292;544951;-72
2023/11/18 14:50:19;;;;;;;30.10;13.00;;;;;;;;;;103681;1296;544774;-72
2023/11/18 14:53:48;;;;;;;41.60;17.30;;;;;;;;;;103856;1289;544795;-74
2023/11/18 14:57:33;;;;;;;55.50;25.70;;;;;;;;;;103506;1295;548636;-73
2023/11/18 15:01:10;;;;;;;37.70;19.50;;;;;;;;;;103814;1291;544994;-73
2023/11/18 15:04:41;;;;;;;21.50;10.00;;;;;;;;;;103958;1288;545628;-74
2023/11/18 15:08:22;;;;;;;18.50;7.50;;;;;;;;;;103831;1291;544993;-73
2023/11/18 15:12:00;;;;;;;11.90;6.90;;;;;;;;;;103560;1294;545774;-72
2023/11/18 15:15:37;;;;;;;11.50;6.60;;;;;;;;;;103976;1289;545134;-72
2023/11/18 15:19:15;;;;;;;10.70;5.90;;;;;;;;;;103804;1289;545398;-73
2023/11/18 15:22:52;;;;;;;11.50;6.00;;;;;;;;;;103815;1289;544769;-72
2023/11/18 15:26:35;;;;;;;10.90;5.70;;;;;;;;;;103911;1288;545577;-72
2023/11/18 15:30:10;;;;;;;10.40;5.50;;;;;;;;;;103939;1290;545085;-71
2023/11/18 15:33:45;;;;;;;9.40;5.60;;;;;;;;;;103818;1293;546198;-73
2023/11/18 15:37:22;;;;;;;10.00;5.80;;;;;;;;;;103816;1289;544995;-72
2023/11/18 15:41:01;;;;;;;8.80;5.20;;;;;;;;;;103739;1295;544767;-72
2023/11/18 15:44:39;;;;;;;10.70;5.60;;;;;;;;;;103996;1288;545034;-72
2023/11/18 15:48:14;;;;;;;11.20;6.70;;;;;;;;;;104583;1282;545179;-73
2023/11/18 15:51:48;;;;;;;12.60;8.60;;;;;;;;;;103913;1288;544877;-71
2023/11/18 15:55:29;;;;;;;15.10;10.70;;;;;;;;;;103754;1290;545299;-73
2023/11/18 15:59:07;;;;;;;19.60;13.60;;;;;;;;;;103931;1289;545667;-72
2023/11/18 16:02:48;;;;;;;19.20;13.10;;;;;;;;;;104435;1282;545138;-73
2023/11/18 16:06:18;;;;;;;22.90;16.00;;;;;;;;;;104003;1289;545960;-72
2023/11/18 16:09:59;;;;;;;22.20;15.40;;;;;;;;;;104188;1288;545002;-72
2023/11/18 16:13:37;;;;;;;31.20;20.20;;;;;;;;;;103946;1291;545557;-72
2023/11/18 16:17:14;;;;;;;59.40;33.40;;;;;;;;;;104059;1294;544973;-73
2023/11/18 16:20:48;;;;;;;50.10;30.30;;;;;;;;;;104097;1289;544835;-73
2023/11/18 16:24:31;;;;;;;37.10;24.40;;;;;;;;;;103818;1295;544972;-73
2023/11/18 16:28:07;;;;;;;31.40;20.50;;;;;;;;;;104026;1291;544982;-73
2023/11/18 16:31:44;;;;;;;34.30;21.80;;;;;;;;;;103924;1295;544837;-75
2023/11/18 16:35:17;;;;;;;35.30;24.00;;;;;;;;;;103982;1289;545427;-71
2023/11/18 16:38:59;;;;;;;43.40;29.00;;;;;;;;;;103727;1289;545548;-73
2023/11/18 16:42:36;;;;;;;50.50;32.60;;;;;;;;;;103829;1288;545970;-72
2023/11/18 16:46:14;;;;;;;75.60;45.30;;;;;;;;;;103777;1295;545082;-72
2023/11/18 16:49:47;;;;;;;78.20;47.00;;;;;;;;;;103959;1292;545043;-71
2023/11/18 16:53:29;;;;;;;72.20;44.10;;;;;;;;;;103828;1292;545721;-71
2023/11/18 16:57:06;;;;;;;69.70;42.30;;;;;;;;;;103873;1291;546004;-73
2023/11/18 17:00:40;;;;;;;74.60;46.70;;;;;;;;;;103997;1292;545135;-72
2023/11/18 17:04:21;;;;;;;87.20;52.60;;;;;;;;;;104587;1285;544817;-72
2023/11/18 17:07:59;;;;;;;98.40;59.30;;;;;;;;;;103816;1291;544761;-73
2023/11/18 17:11:36;;;;;;;79.90;47.70;;;;;;;;;;103784;1292;544980;-73
2023/11/18 17:15:14;;;;;;;72.40;45.20;;;;;;;;;;103816;1289;545037;-73
2023/11/18 17:18:50;;;;;;;73.90;46.70;;;;;;;;;;104009;1294;544968;-75
2023/11/18 17:22:25;;;;;;;72.30;44.70;;;;;;;;;;103981;1291;545797;-73
2023/11/18 17:26:07;;;;;;;67.10;41.50;;;;;;;;;;103809;1291;545101;-74
2023/11/18 17:29:43;;;;;;;68.00;41.40;;;;;;;;;;104275;1289;544827;-73
2023/11/18 17:33:17;;;;;;;72.80;44.60;;;;;;;;;;104278;1289;545549;-73
2023/11/18 17:36:54;;;;;;;88.40;53.00;;;;;;;;;;104009;1289;545581;-72
2023/11/18 17:40:55;;;;;;;81.00;46.90;;;;;;;;;;103810;1292;546397;-75
2023/11/18 17:44:17;;;;;;;77.10;46.10;;;;;;;;;;104006;1289;544937;-70
2023/11/18 17:47:50;;;;;;;67.90;38.60;;;;;;;;;;103859;1289;545318;-73
2023/11/18 17:51:24;;;;;;;54.70;32.00;;;;;;;;;;104077;1292;544745;-72
2023/11/18 17:55:08;;;;;;;55.30;32.50;;;;;;;;;;103965;1289;545218;-73
2023/11/18 17:58:43;;;;;;;51.70;30.80;;;;;;;;;;103863;1294;545527;-72
2023/11/18 18:02:23;;;;;;;49.50;28.00;;;;;;;;;;104832;1283;546106;-72
2023/11/18 18:05:59;;;;;;;49.90;27.80;;;;;;;;;;103900;1295;546727;-71
2023/11/18 18:09:32;;;;;;;56.70;31.50;;;;;;;;;;104039;1301;545353;-70
2023/11/18 18:13:12;;;;;;;66.80;33.60;;;;;;;;;;104101;1292;545866;-74
2023/11/18 18:16:50;;;;;;;67.20;32.30;;;;;;;;;;103895;1293;544828;-71
2023/11/18 18:20:28;;;;;;;66.90;32.00;;;;;;;;;;104109;1288;544991;-72
2023/11/18 18:24:08;;;;;;;66.30;33.90;;;;;;;;;;103795;1290;544762;-73
2023/11/18 18:28:02;;;;;;;63.20;34.20;;;;;;;;;;103970;1292;547820;-72
2023/11/18 18:31:20;;;;;;;63.00;33.70;;;;;;;;;;103804;1296;545121;-71
2023/11/18 18:34:57;;;;;;;63.40;34.50;;;;;;;;;;103538;1294;544942;-73
2023/11/18 18:38:40;;;;;;;62.50;33.20;;;;;;;;;;103696;1292;548163;-74
2023/11/18 18:42:09;;;;;;;63.10;32.10;;;;;;;;;;104646;1283;545053;-73
2023/11/18 18:45:52;;;;;;;63.70;32.70;;;;;;;;;;104481;1282;545564;-73
2023/11/18 18:49:27;;;;;;;63.50;36.60;;;;;;;;;;104463;1295;545565;-71
2023/11/18 18:53:07;;;;;;;69.10;39.30;;;;;;;;;;103877;1290;544734;-73
2023/11/18 18:56:43;;;;;;;59.30;35.00;;;;;;;;;;104101;1294;544973;-72
2023/11/18 19:00:17;;;;;;;50.00;31.80;;;;;;;;;;103940;1290;545222;-72
2023/11/18 19:03:56;;;;;;;54.90;33.10;;;;;;;;;;103818;1288;544962;-73
2023/11/18 19:07:35;;;;;;;52.70;35.40;;;;;;;;;;103843;1292;546009;-72
2023/11/18 19:11:16;;;;;;;55.00;36.90;;;;;;;;;;103768;1292;545443;-73
2023/11/18 19:14:50;;;;;;;54.70;34.50;;;;;;;;;;103708;1293;545742;-73
2023/11/18 19:18:27;;;;;;;46.20;33.20;;;;;;;;;;103815;1292;544852;-71
2023/11/18 19:22:06;;;;;;;48.70;31.50;;;;;;;;;;103869;1288;545444;-73
2023/11/18 19:25:44;;;;;;;45.40;31.70;;;;;;;;;;104277;1291;545139;-74
2023/11/18 19:29:19;;;;;;;52.50;34.50;;;;;;;;;;103644;1306;545347;-73
2023/11/18 19:32:56;;;;;;;60.00;39.70;;;;;;;;;;103853;1292;546207;-73
2023/11/18 19:36:34;;;;;;;57.60;36.20;;;;;;;;;;103837;1291;545377;-73
2023/11/18 19:40:12;;;;;;;53.70;34.60;;;;;;;;;;103544;1298;546184;-73
2023/11/18 19:43:48;;;;;;;50.10;32.50;;;;;;;;;;103994;1290;545008;-71
2023/11/18 19:47:31;;;;;;;57.40;35.40;;;;;;;;;;104172;1286;544881;-71
2023/11/18 19:51:07;;;;;;;60.30;39.90;;;;;;;;;;103849;1292;544799;-72
2023/11/18 19:54:44;;;;;;;56.10;36.00;;;;;;;;;;103880;1295;545555;-74
2023/11/18 19:58:21;;;;;;;44.30;29.00;;;;;;;;;;104124;1291;544894;-73
2023/11/18 20:01:58;;;;;;;36.60;24.30;;;;;;;;;;103822;1291;545041;-72
2023/11/18 20:05:34;;;;;;;31.20;21.80;;;;;;;;;;103987;1292;544876;-74
2023/11/18 20:09:12;;;;;;;42.00;25.20;;;;;;;;;;103825;1294;545426;-71
2023/11/18 20:12:52;;;;;;;46.80;23.70;;;;;;;;;;103861;1294;544870;-69
2023/11/18 20:16:28;;;;;;;38.90;23.20;;;;;;;;;;104289;1293;544837;-72
2023/11/18 20:20:05;;;;;;;37.10;24.30;;;;;;;;;;103780;1292;544926;-71
2023/11/18 20:23:41;;;;;;;38.20;24.90;;;;;;;;;;103793;1294;545350;-72
2023/11/18 20:27:19;;;;;;;45.50;29.20;;;;;;;;;;104353;1292;545524;-72
2023/11/18 20:30:56;;;;;;;48.90;27.70;;;;;;;;;;103814;1292;544959;-74
2023/11/18 20:34:34;;;;;;;57.30;32.10;;;;;;;;;;104653;1282;544971;-74
2023/11/18 20:38:12;;;;;;;67.10;35.00;;;;;;;;;;103844;1292;544604;-72
2023/11/18 20:41:46;;;;;;;70.90;36.10;;;;;;;;;;104132;1293;544945;-72
2023/11/18 20:45:32;;;;;;;73.20;40.80;;;;;;;;;;103854;1288;546042;-73
2023/11/18 20:49:04;;;;;;;68.50;39.00;;;;;;;;;;103870;1291;544952;-70
2023/11/18 20:52:43;;;;;;;64.20;36.50;;;;;;;;;;103747;1295;545952;-73